Terminal Aerodrome Forecast
Issued by NWS

Home | Current Version | Previous Version | Text Only | Print | Product List | Glossary On
Versions: 1 2 3 4 5 6 7 8 9 10 11 12 13 14 15 16 17 18 19 20 21 22 23 24
000
FTUS43 KIND 201121
TAFLAF
TAF
KLAF 201121Z 2012/2112 13004KT 3/4SM BR SCT003 BKN020
     FM201400 14006KT 3/4SM BR FEW003 BKN010
     FM201600 14008KT P6SM BKN020
     FM201700 15009KT P6SM SCT035
     FM210600 18010KT P6SM BKN200
     FM210900 20009KT P6SM OVC015
      AMD LTD TO CLD VIS AND WIND TIL 201400=

USA.gov is the U.S. government's official web portal to all federal, state and local government web resources and services.